Time;durP1;ratioP1;P1;durP2;ratioP2;P2;SDS_P1;SDS_P2;PMS_P1;PMS_P2;Temp;Humidity;BMP_temperature;BMP_pressure;BME280_temperature;BME280_humidity;BME280_pressure;Samples;Min_cycle;Max_cycle;Signal;HPM_P1;HPM_P2
2023/06/29 00:00:25;;;;;;;14.60;13.40;;;21.20;99.90;;;;;;5185839;28;20066;-71
2023/06/29 00:02:56;;;;;;;17.20;15.45;;;21.20;99.90;;;;;;5185821;28;20029;-70
2023/06/29 00:05:27;;;;;;;16.60;14.95;;;21.20;99.90;;;;;;5185836;28;20030;-71
2023/06/29 00:07:59;;;;;;;17.92;16.42;;;21.10;99.90;;;;;;5185779;28;20025;-71
2023/06/29 00:10:30;;;;;;;17.02;15.55;;;21.10;99.90;;;;;;5185688;28;20560;-71
2023/06/29 00:13:00;;;;;;;17.35;16.00;;;21.10;99.90;;;;;;5185874;28;20030;-71
2023/06/29 00:15:31;;;;;;;15.73;14.50;;;21.10;99.90;;;;;;5185854;28;20030;-71
2023/06/29 00:18:03;;;;;;;16.83;15.30;;;21.20;99.90;;;;;;5168125;28;20100;-71
2023/06/29 00:20:35;;;;;;;14.20;12.80;;;21.30;99.90;;;;;;5185950;28;20118;-70
2023/06/29 00:23:06;;;;;;;15.30;13.40;;;21.20;99.90;;;;;;5185829;28;20105;-71
2023/06/29 00:25:44;;;;;;;13.77;12.55;;;21.30;99.90;;;;;;5185545;28;20026;-70
2023/06/29 00:28:15;;;;;;;17.08;15.55;;;21.20;99.90;;;;;;5185482;28;20033;-71
2023/06/29 00:30:46;;;;;;;17.92;16.40;;;21.20;99.90;;;;;;5185398;28;20080;-70
2023/06/29 00:33:17;;;;;;;15.65;14.07;;;21.20;99.90;;;;;;5185575;28;20364;-71
2023/06/29 00:35:48;;;;;;;16.67;15.10;;;21.00;99.90;;;;;;5185386;28;20478;-71
2023/06/29 00:38:18;;;;;;;15.98;14.52;;;21.00;99.90;;;;;;5185418;28;20085;-71
2023/06/29 00:40:49;;;;;;;14.55;13.35;;;21.00;99.90;;;;;;5185123;28;20108;-71
2023/06/29 00:43:20;;;;;;;16.10;14.75;;;21.00;99.90;;;;;;5185417;28;20044;-71
2023/06/29 00:45:51;;;;;;;15.90;14.60;;;20.90;99.90;;;;;;5185317;28;20089;-71
2023/06/29 00:48:22;;;;;;;17.05;15.30;;;20.90;99.90;;;;;;5187828;28;20034;-70
2023/06/29 00:50:53;;;;;;;15.43;14.13;;;21.00;99.90;;;;;;5189674;28;20022;-70
2023/06/29 00:53:24;;;;;;;16.33;14.98;;;20.90;99.90;;;;;;5189602;28;20738;-71
2023/06/29 00:55:56;;;;;;;15.98;14.68;;;20.80;99.90;;;;;;5189364;28;20024;-71
2023/06/29 00:58:27;;;;;;;16.80;15.23;;;20.70;99.90;;;;;;5189417;28;20125;-71
2023/06/29 01:00:58;;;;;;;16.25;14.75;;;20.80;99.90;;;;;;5189281;28;20026;-71
2023/06/29 01:03:30;;;;;;;18.55;16.83;;;20.80;99.90;;;;;;5189333;28;20417;-71
2023/06/29 01:06:04;;;;;;;18.30;16.80;;;20.70;99.90;;;;;;5189275;28;20080;-70
2023/06/29 01:08:44;;;;;;;20.42;18.75;;;20.80;99.90;;;;;;5188983;28;20156;-70
2023/06/29 01:11:15;;;;;;;25.75;23.73;;;20.70;99.90;;;;;;5189126;28;20057;-71
2023/06/29 01:13:49;;;;;;;24.40;22.48;;;20.70;99.90;;;;;;5189062;28;20038;-71
2023/06/29 01:16:21;;;;;;;28.17;26.35;;;20.60;99.90;;;;;;5188944;28;20056;-71
2023/06/29 01:18:53;;;;;;;27.23;25.27;;;20.60;99.90;;;;;;5188870;28;20425;-71
2023/06/29 01:21:24;;;;;;;26.60;24.52;;;20.60;99.90;;;;;;5188895;28;20033;-72
2023/06/29 01:23:57;;;;;;;24.02;22.20;;;20.60;99.90;;;;;;5188785;28;20380;-71
2023/06/29 01:26:29;;;;;;;20.27;18.75;;;20.50;99.90;;;;;;5188930;28;20060;-71
2023/06/29 01:29:00;;;;;;;19.50;17.73;;;20.50;99.90;;;;;;5188763;28;20125;-71
2023/06/29 01:31:31;;;;;;;16.80;15.32;;;20.40;99.90;;;;;;5188836;28;20066;-70
2023/06/29 01:34:02;;;;;;;17.90;16.42;;;20.40;99.90;;;;;;5188872;28;20025;-70
2023/06/29 01:36:42;;;;;;;16.10;14.70;;;20.50;99.90;;;;;;5188779;28;20063;-70
2023/06/29 01:39:21;;;;;;;14.32;13.13;;;20.40;99.90;;;;;;5188696;28;20026;-70
2023/06/29 01:41:54;;;;;;;9.13;8.25;;;20.40;99.90;;;;;;5188498;28;20056;-70
2023/06/29 01:44:25;;;;;;;10.00;7.80;;;20.30;99.90;;;;;;5188529;28;20030;-71
2023/06/29 01:46:56;;;;;;;8.27;7.47;;;20.30;99.90;;;;;;5188341;28;20025;-71
2023/06/29 01:49:28;;;;;;;7.38;6.43;;;20.30;99.90;;;;;;5188528;28;20052;-70
2023/06/29 01:51:58;;;;;;;7.97;6.85;;;20.30;99.90;;;;;;5188502;28;20022;-70
2023/06/29 01:54:29;;;;;;;8.98;6.28;;;20.30;99.90;;;;;;5188384;28;20117;-70
2023/06/29 01:57:01;;;;;;;8.35;6.03;;;20.20;99.90;;;;;;5188287;28;20038;-70
2023/06/29 01:59:31;;;;;;;10.23;6.60;;;20.10;99.90;;;;;;5187751;28;20064;-71
2023/06/29 02:02:03;;;;;;;7.80;5.85;;;20.10;99.90;;;;;;5188232;28;20057;-71
2023/06/29 02:04:34;;;;;;;8.52;6.30;;;20.20;99.90;;;;;;5188125;28;20060;-71
2023/06/29 02:07:05;;;;;;;6.53;5.47;;;20.10;99.90;;;;;;5188138;28;20470;-71
2023/06/29 02:09:35;;;;;;;8.82;7.22;;;20.10;99.90;;;;;;5187869;28;20037;-71
2023/06/29 02:12:07;;;;;;;7.03;5.25;;;20.20;99.90;;;;;;5187904;28;20386;-70
2023/06/29 02:14:38;;;;;;;6.75;6.15;;;20.00;99.90;;;;;;5187829;28;20022;-70
2023/06/29 02:17:09;;;;;;;7.32;5.07;;;20.00;99.90;;;;;;5187783;28;20034;-71
2023/06/29 02:19:39;;;;;;;6.10;5.03;;;20.00;99.90;;;;;;5187850;28;20064;-70
2023/06/29 02:22:10;;;;;;;7.05;6.38;;;20.00;99.90;;;;;;5187866;28;20030;-71
2023/06/29 02:24:41;;;;;;;6.50;5.53;;;19.90;99.90;;;;;;5187614;28;20056;-70
2023/06/29 02:27:12;;;;;;;5.95;5.53;;;20.00;99.90;;;;;;5187563;28;20026;-70
2023/06/29 02:29:43;;;;;;;5.50;5.00;;;19.70;99.90;;;;;;5187527;28;20030;-71
2023/06/29 02:32:14;;;;;;;5.88;5.35;;;19.90;99.90;;;;;;5187608;28;20061;-70
2023/06/29 02:34:44;;;;;;;7.20;5.50;;;19.90;99.90;;;;;;5187454;28;20037;-71
2023/06/29 02:37:15;;;;;;;7.78;5.30;;;19.80;99.90;;;;;;5187457;28;20556;-71
2023/06/29 02:39:46;;;;;;;6.20;5.32;;;19.80;99.90;;;;;;5187381;28;20022;-70
2023/06/29 02:42:17;;;;;;;9.88;6.07;;;19.90;99.90;;;;;;5187195;28;20042;-71
2023/06/29 02:44:48;;;;;;;7.20;6.45;;;19.90;99.90;;;;;;5187574;28;20041;-70
2023/06/29 02:47:19;;;;;;;6.57;5.95;;;19.90;99.90;;;;;;5187323;28;20064;-71
2023/06/29 02:49:49;;;;;;;6.85;6.03;;;19.90;99.90;;;;;;5187522;28;20029;-70
2023/06/29 02:52:20;;;;;;;7.80;7.10;;;19.80;99.90;;;;;;5187458;28;20418;-71
2023/06/29 02:54:51;;;;;;;8.40;6.22;;;19.80;99.90;;;;;;5187235;28;20087;-71
2023/06/29 02:57:22;;;;;;;8.85;6.22;;;19.70;99.90;;;;;;5187105;28;20443;-71
2023/06/29 02:59:53;;;;;;;9.32;6.85;;;19.90;99.90;;;;;;5187084;28;20435;-70
2023/06/29 03:02:24;;;;;;;6.80;6.15;;;19.80;99.90;;;;;;5187061;28;20029;-70
2023/06/29 03:04:55;;;;;;;7.53;5.82;;;19.60;99.90;;;;;;5186995;28;20387;-71
2023/06/29 03:07:26;;;;;;;7.28;6.57;;;19.60;99.90;;;;;;5169256;28;20076;-70
2023/06/29 03:09:57;;;;;;;7.15;6.47;;;19.60;99.90;;;;;;5186058;28;20073;-71
2023/06/29 03:12:28;;;;;;;7.35;6.65;;;19.60;99.90;;;;;;5186892;28;20053;-70
2023/06/29 03:14:58;;;;;;;6.90;6.20;;;19.60;99.90;;;;;;5186751;28;20021;-71
2023/06/29 03:17:29;;;;;;;6.40;5.90;;;19.70;99.90;;;;;;5186814;28;20041;-71
2023/06/29 03:20:00;;;;;;;6.45;5.88;;;19.60;99.90;;;;;;5186725;28;20033;-70
2023/06/29 03:22:31;;;;;;;6.63;6.03;;;19.70;99.90;;;;;;5186569;28;20160;-70
2023/06/29 03:25:03;;;;;;;6.82;5.65;;;19.60;99.90;;;;;;5186552;28;20030;-70
2023/06/29 03:27:34;;;;;;;6.53;5.93;;;19.60;99.90;;;;;;5186477;28;20030;-70
2023/06/29 03:30:05;;;;;;;6.28;5.78;;;19.70;99.90;;;;;;5186478;28;20033;-71
2023/06/29 03:32:36;;;;;;;6.00;5.38;;;19.70;99.90;;;;;;5186520;28;20171;-70
2023/06/29 03:35:07;;;;;;;4.88;4.40;;;19.50;99.90;;;;;;5186270;28;20116;-71
2023/06/29 03:37:38;;;;;;;6.35;5.47;;;19.70;99.90;;;;;;5186107;28;20073;-72
2023/06/29 03:40:09;;;;;;;5.45;4.95;;;19.60;99.90;;;;;;5186175;28;20495;-70
2023/06/29 03:42:40;;;;;;;10.88;10.02;;;19.60;99.90;;;;;;5185970;28;20050;-71
2023/06/29 03:45:11;;;;;;;4.43;3.97;;;19.50;99.90;;;;;;5168651;28;20033;-71
2023/06/29 03:47:42;;;;;;;4.00;3.65;;;19.60;99.90;;;;;;5186226;28;20026;-70
2023/06/29 03:50:13;;;;;;;3.40;3.20;;;19.50;99.90;;;;;;5186040;28;20036;-70
2023/06/29 03:52:44;;;;;;;4.68;3.72;;;19.50;99.90;;;;;;5186005;28;20018;-71
2023/06/29 03:55:16;;;;;;;4.28;3.80;;;19.50;99.90;;;;;;5185929;28;20371;-70
2023/06/29 03:57:47;;;;;;;4.13;3.83;;;19.50;99.90;;;;;;5185835;28;20045;-70
2023/06/29 04:00:18;;;;;;;5.70;3.63;;;19.50;99.90;;;;;;5185858;28;20037;-70
2023/06/29 04:02:49;;;;;;;4.38;4.07;;;19.50;99.90;;;;;;5185947;28;20041;-70
2023/06/29 04:05:20;;;;;;;4.25;3.85;;;19.60;99.90;;;;;;5185998;28;20025;-71
2023/06/29 04:07:51;;;;;;;4.00;3.65;;;19.60;99.90;;;;;;5185713;28;20033;-71
2023/06/29 04:10:23;;;;;;;3.28;2.97;;;19.50;99.90;;;;;;5185739;28;20387;-70
2023/06/29 04:12:54;;;;;;;3.45;3.25;;;19.50;99.90;;;;;;5185728;28;20025;-70
2023/06/29 04:15:25;;;;;;;3.97;3.67;;;19.50;99.90;;;;;;5185678;28;20114;-71
2023/06/29 04:17:56;;;;;;;3.50;3.20;;;19.70;99.90;;;;;;5185654;28;20096;-71
2023/06/29 04:20:28;;;;;;;5.10;3.17;;;19.50;99.90;;;;;;5185586;28;20026;-70
2023/06/29 04:22:59;;;;;;;4.05;3.75;;;19.60;99.90;;;;;;5185584;28;20110;-71
2023/06/29 04:25:30;;;;;;;3.83;3.53;;;19.60;99.90;;;;;;5185622;28;20108;-70
2023/06/29 04:28:01;;;;;;;4.18;3.88;;;19.60;99.90;;;;;;5185563;28;20030;-70
2023/06/29 04:30:32;;;;;;;3.83;3.00;;;19.50;99.90;;;;;;5185474;28;20088;-70
2023/06/29 04:33:09;;;;;;;3.70;3.40;;;19.50;99.90;;;;;;5185625;28;20029;-70
2023/06/29 04:35:44;;;;;;;3.28;2.97;;;19.50;99.90;;;;;;5185340;28;20105;-71
2023/06/29 04:38:16;;;;;;;3.75;2.92;;;19.30;99.90;;;;;;5167725;28;20120;-70
2023/06/29 04:40:47;;;;;;;3.20;2.97;;;19.30;99.90;;;;;;5185030;28;20034;-71
2023/06/29 04:43:18;;;;;;;2.80;2.60;;;19.30;99.90;;;;;;5185472;28;20088;-71
2023/06/29 04:45:49;;;;;;;4.80;4.32;;;19.30;99.90;;;;;;5185292;28;20041;-70
2023/06/29 04:48:24;;;;;;;3.30;3.00;;;19.30;99.90;;;;;;5185302;28;20026;-71
2023/06/29 04:51:04;;;;;;;3.55;3.00;;;19.20;99.90;;;;;;5185260;28;20022;-71
2023/06/29 04:53:36;;;;;;;3.55;3.22;;;19.30;99.90;;;;;;5185306;28;20018;-70
2023/06/29 04:56:07;;;;;;;3.83;3.58;;;19.30;99.90;;;;;;5185003;28;20087;-70
2023/06/29 04:58:38;;;;;;;4.75;4.45;;;19.20;99.90;;;;;;5185002;28;20029;-70
2023/06/29 05:01:09;;;;;;;4.90;4.60;;;19.10;99.90;;;;;;5185214;28;20426;-71
2023/06/29 05:03:40;;;;;;;5.40;4.90;;;19.30;99.90;;;;;;5185168;28;20029;-70
2023/06/29 05:06:11;;;;;;;5.28;4.80;;;19.20;99.90;;;;;;5185242;28;20105;-71
2023/06/29 05:08:42;;;;;;;4.90;4.57;;;19.20;99.90;;;;;;5185034;28;20040;-70
2023/06/29 05:11:13;;;;;;;5.63;5.13;;;19.30;99.90;;;;;;5184892;28;20022;-71
2023/06/29 05:13:43;;;;;;;5.85;5.25;;;19.30;99.90;;;;;;5184879;28;20405;-70
2023/06/29 05:16:14;;;;;;;4.60;4.20;;;19.10;99.90;;;;;;5184875;28;20548;-71
2023/06/29 05:18:45;;;;;;;5.13;4.15;;;19.30;99.90;;;;;;5185026;28;20714;-71
2023/06/29 05:21:16;;;;;;;4.20;3.90;;;19.20;99.90;;;;;;5185310;28;20532;-71
2023/06/29 05:23:47;;;;;;;7.35;4.75;;;19.30;99.90;;;;;;5185184;28;20417;-71
2023/06/29 05:26:18;;;;;;;4.88;4.43;;;19.30;99.90;;;;;;5185046;28;20018;-70
2023/06/29 05:28:49;;;;;;;5.57;5.07;;;19.30;99.90;;;;;;5184941;28;20033;-71
2023/06/29 05:31:20;;;;;;;6.55;4.78;;;19.30;99.90;;;;;;5185233;28;20339;-71
2023/06/29 05:33:51;;;;;;;3.67;3.47;;;19.30;99.90;;;;;;5186530;28;20040;-71
2023/06/29 05:36:21;;;;;;;4.38;3.53;;;19.20;99.90;;;;;;5188563;28;20026;-70
2023/06/29 05:38:52;;;;;;;3.83;3.53;;;19.30;99.90;;;;;;5188633;28;20037;-70
2023/06/29 05:41:23;;;;;;;3.95;3.65;;;19.40;99.90;;;;;;5188406;28;20072;-71
2023/06/29 05:43:54;;;;;;;5.70;4.15;;;19.40;99.90;;;;;;5188618;28;20030;-72
2023/06/29 05:46:25;;;;;;;5.45;5.03;;;19.30;99.90;;;;;;5188626;28;20053;-70
2023/06/29 05:48:56;;;;;;;7.90;6.38;;;19.30;99.90;;;;;;5188507;28;20026;-70
2023/06/29 05:51:27;;;;;;;6.25;5.85;;;19.20;99.90;;;;;;5188514;28;20030;-70
2023/06/29 05:53:58;;;;;;;6.22;5.85;;;19.10;99.90;;;;;;5188345;28;20514;-70
2023/06/29 05:56:28;;;;;;;6.25;5.80;;;19.10;99.90;;;;;;5188196;28;20381;-71
2023/06/29 05:58:59;;;;;;;6.10;5.47;;;19.10;99.90;;;;;;5188303;28;20029;-70
2023/06/29 06:01:30;;;;;;;6.40;5.95;;;19.10;99.90;;;;;;5188176;28;20038;-70
2023/06/29 06:04:02;;;;;;;6.47;5.97;;;19.10;99.90;;;;;;5188162;28;20403;-70
2023/06/29 06:06:33;;;;;;;7.18;6.65;;;19.10;99.90;;;;;;5188027;28;20041;-71
2023/06/29 06:09:04;;;;;;;7.75;6.00;;;19.30;99.90;;;;;;5187996;28;20022;-72
2023/06/29 06:11:35;;;;;;;7.82;7.32;;;19.40;99.90;;;;;;5187867;28;20426;-70
2023/06/29 06:14:06;;;;;;;8.02;7.43;;;19.50;99.90;;;;;;5188000;28;20079;-70
2023/06/29 06:16:37;;;;;;;8.13;7.32;;;19.50;99.90;;;;;;5187653;28;20038;-71
2023/06/29 06:19:07;;;;;;;8.85;8.15;;;19.40;99.90;;;;;;5187896;28;20048;-70
2023/06/29 06:21:38;;;;;;;8.68;6.57;;;19.30;99.90;;;;;;5187822;28;20084;-71
2023/06/29 06:24:10;;;;;;;7.75;7.05;;;19.30;99.90;;;;;;5187874;28;20036;-70
2023/06/29 06:26:41;;;;;;;8.20;7.40;;;19.40;99.90;;;;;;5187687;28;20447;-71
2023/06/29 06:29:12;;;;;;;6.80;6.30;;;19.20;99.90;;;;;;5187796;28;20030;-70
2023/06/29 06:31:43;;;;;;;7.50;6.90;;;19.40;99.90;;;;;;5187631;28;20540;-70
2023/06/29 06:34:13;;;;;;;6.95;6.43;;;19.30;99.90;;;;;;5187596;28;20518;-71
2023/06/29 06:36:48;;;;;;;6.72;6.28;;;19.30;99.90;;;;;;5187490;28;20558;-70
2023/06/29 06:39:19;;;;;;;7.03;6.53;;;19.20;99.90;;;;;;5187557;28;20038;-71
2023/06/29 06:41:50;;;;;;;6.57;6.10;;;19.40;99.90;;;;;;5187534;28;20096;-70
2023/06/29 06:44:21;;;;;;;5.75;5.35;;;19.30;99.90;;;;;;5186962;28;20106;-70
2023/06/29 06:46:52;;;;;;;5.22;4.93;;;19.20;99.90;;;;;;5186667;28;20049;-70
2023/06/29 06:49:23;;;;;;;6.15;5.60;;;19.40;99.90;;;;;;5187353;28;20022;-70
2023/06/29 06:51:54;;;;;;;6.65;6.15;;;19.40;99.90;;;;;;5187271;28;20026;-71
2023/06/29 06:54:24;;;;;;;6.47;6.07;;;19.50;99.90;;;;;;5187188;28;20026;-71
2023/06/29 06:56:55;;;;;;;6.55;5.93;;;19.50;99.90;;;;;;5187228;28;20029;-71
2023/06/29 06:59:26;;;;;;;7.65;6.78;;;19.50;99.90;;;;;;5187263;28;20056;-71
2023/06/29 07:01:57;;;;;;;6.82;6.32;;;19.50;99.90;;;;;;5169555;28;20025;-71
2023/06/29 07:04:28;;;;;;;5.80;5.40;;;19.50;99.90;;;;;;5186972;28;20036;-71
2023/06/29 07:06:59;;;;;;;7.45;6.15;;;19.40;99.90;;;;;;5187078;28;20458;-70
2023/06/29 07:09:29;;;;;;;5.88;5.28;;;19.40;99.90;;;;;;5186930;28;20033;-70
2023/06/29 07:12:00;;;;;;;6.30;5.80;;;19.30;99.90;;;;;;5186768;28;20044;-71
2023/06/29 07:14:31;;;;;;;6.25;5.75;;;19.40;99.90;;;;;;5186758;28;20437;-71
2023/06/29 07:17:02;;;;;;;6.45;6.00;;;19.50;99.90;;;;;;5186655;28;20042;-71
2023/06/29 07:19:33;;;;;;;6.55;6.15;;;19.50;99.90;;;;;;5186731;28;20458;-71
2023/06/29 07:22:04;;;;;;;7.45;6.85;;;19.60;99.90;;;;;;5186645;28;20018;-71
2023/06/29 07:24:35;;;;;;;8.48;7.78;;;19.70;99.90;;;;;;5186763;28;20079;-71
2023/06/29 07:27:06;;;;;;;7.95;7.40;;;19.70;99.90;;;;;;5186417;28;20038;-70
2023/06/29 07:29:37;;;;;;;8.13;7.53;;;19.80;99.90;;;;;;5186455;28;20037;-71
2023/06/29 07:32:09;;;;;;;8.50;7.70;;;20.00;99.90;;;;;;5186399;28;20026;-71
2023/06/29 07:34:40;;;;;;;7.22;6.63;;;19.90;99.90;;;;;;5186335;28;20460;-70
2023/06/29 07:37:10;;;;;;;6.35;5.93;;;20.00;99.90;;;;;;5186274;28;20037;-71
2023/06/29 07:39:41;;;;;;;8.98;8.25;;;20.20;99.90;;;;;;5186412;28;20466;-71
2023/06/29 07:42:12;;;;;;;8.77;8.27;;;20.00;99.90;;;;;;5185946;28;20057;-71
2023/06/29 07:44:43;;;;;;;8.02;7.53;;;20.20;99.90;;;;;;5186315;28;20026;-70
2023/06/29 07:47:14;;;;;;;7.88;7.28;;;20.10;99.90;;;;;;5186439;28;20640;-70
2023/06/29 07:49:45;;;;;;;7.22;6.63;;;20.00;99.90;;;;;;5186198;28;20040;-71
2023/06/29 07:52:17;;;;;;;6.82;6.32;;;20.00;99.90;;;;;;5186297;28;20068;-71
2023/06/29 07:54:49;;;;;;;6.32;5.93;;;20.10;99.90;;;;;;5186108;28;20026;-71
2023/06/29 07:57:19;;;;;;;8.43;7.60;;;20.10;99.90;;;;;;5185934;28;20515;-71
2023/06/29 07:59:50;;;;;;;6.43;6.00;;;20.00;99.90;;;;;;5186071;28;20022;-71
2023/06/29 08:02:21;;;;;;;7.93;7.32;;;20.00;99.90;;;;;;5185994;28;20104;-71
2023/06/29 08:04:52;;;;;;;8.20;7.40;;;20.00;99.90;;;;;;5185911;28;20049;-70
2023/06/29 08:07:23;;;;;;;8.43;7.85;;;20.00;99.90;;;;;;5185882;28;20030;-72
2023/06/29 08:09:54;;;;;;;9.40;8.80;;;20.10;99.90;;;;;;5185856;28;20026;-70
2023/06/29 08:12:25;;;;;;;8.95;8.35;;;20.10;99.90;;;;;;5185720;28;20066;-70
2023/06/29 08:14:56;;;;;;;9.20;8.60;;;20.30;99.90;;;;;;5185674;28;20022;-71
2023/06/29 08:17:28;;;;;;;9.73;9.02;;;20.10;99.90;;;;;;5185614;28;20048;-71
2023/06/29 08:20:00;;;;;;;10.25;9.45;;;20.30;99.90;;;;;;5185589;28;20021;-70
2023/06/29 08:22:30;;;;;;;10.00;9.30;;;20.30;99.90;;;;;;5185572;28;20030;-70
2023/06/29 08:25:01;;;;;;;9.85;9.10;;;20.20;99.90;;;;;;5185594;28;20022;-71
2023/06/29 08:27:32;;;;;;;9.52;8.63;;;20.30;99.90;;;;;;5185582;28;20046;-71
2023/06/29 08:30:03;;;;;;;10.20;9.38;;;20.10;99.90;;;;;;5185428;28;20470;-70
2023/06/29 08:32:34;;;;;;;9.77;9.15;;;20.00;99.90;;;;;;5185364;28;20018;-70
2023/06/29 08:35:06;;;;;;;10.73;9.93;;;20.00;99.90;;;;;;5185306;28;20022;-71
2023/06/29 08:37:36;;;;;;;10.43;9.73;;;20.10;99.90;;;;;;5185222;28;20034;-70
2023/06/29 08:40:08;;;;;;;9.88;9.25;;;20.10;99.90;;;;;;5185342;28;20056;-70
2023/06/29 08:42:40;;;;;;;10.65;9.85;;;20.10;99.90;;;;;;5185146;28;20046;-70
2023/06/29 08:45:11;;;;;;;9.55;8.90;;;20.10;99.90;;;;;;5185313;28;20046;-71
2023/06/29 08:47:43;;;;;;;9.63;8.93;;;20.20;99.90;;;;;;5185413;28;20057;-70
2023/06/29 08:50:14;;;;;;;10.65;9.88;;;20.40;99.90;;;;;;5185271;28;20470;-71
2023/06/29 08:52:47;;;;;;;11.60;10.60;;;20.40;99.90;;;;;;5185356;28;20105;-70
2023/06/29 08:55:18;;;;;;;13.75;12.88;;;20.40;99.90;;;;;;5185163;28;20022;-70
2023/06/29 08:57:53;;;;;;;11.60;10.80;;;20.70;99.90;;;;;;5185176;28;20866;-70
2023/06/29 09:00:25;;;;;;;10.25;9.52;;;20.50;99.90;;;;;;5185194;28;20018;-71
2023/06/29 09:02:56;;;;;;;11.60;10.80;;;20.60;99.90;;;;;;5185186;28;20097;-70
2023/06/29 09:05:28;;;;;;;12.70;11.80;;;20.50;99.90;;;;;;5185237;28;20028;-71
2023/06/29 09:07:58;;;;;;;10.35;9.65;;;20.30;99.90;;;;;;5185164;28;20492;-70
2023/06/29 09:10:29;;;;;;;8.98;8.27;;;20.10;99.90;;;;;;5189162;28;20038;-70
2023/06/29 09:13:02;;;;;;;10.20;9.45;;;20.30;99.90;;;;;;5189547;28;20024;-71
2023/06/29 09:15:34;;;;;;;11.50;10.70;;;20.40;99.90;;;;;;5189166;28;20022;-70
2023/06/29 09:18:05;;;;;;;10.82;10.13;;;20.70;99.90;;;;;;5189113;28;20033;-70
2023/06/29 09:20:36;;;;;;;9.02;8.43;;;20.80;99.90;;;;;;5189072;28;20033;-71
2023/06/29 09:23:07;;;;;;;8.65;8.05;;;20.70;99.90;;;;;;5189170;28;20029;-71
2023/06/29 09:25:39;;;;;;;7.38;6.88;;;20.70;99.90;;;;;;5188988;28;20030;-71
2023/06/29 09:28:12;;;;;;;6.22;5.63;;;20.60;99.90;;;;;;5188813;28;20030;-70
2023/06/29 09:30:42;;;;;;;6.80;6.30;;;20.70;99.90;;;;;;5188968;28;20556;-70
2023/06/29 09:33:15;;;;;;;6.82;6.32;;;20.80;99.90;;;;;;5188967;28;20030;-70
2023/06/29 09:35:48;;;;;;;7.13;6.55;;;20.90;99.90;;;;;;5188720;28;20115;-70
2023/06/29 09:38:19;;;;;;;7.72;7.05;;;20.80;99.90;;;;;;5636948;23;20029;-71
2023/06/29 09:40:55;;;;;;;6.75;6.15;;;20.70;99.90;;;;;;5188828;28;20034;-70
2023/06/29 09:43:28;;;;;;;7.57;6.97;;;20.50;99.90;;;;;;5188434;28;20034;-71
2023/06/29 09:46:07;;;;;;;7.38;6.78;;;20.50;99.90;;;;;;5188672;28;20025;-71
2023/06/29 09:48:47;;;;;;;6.45;5.97;;;20.50;99.90;;;;;;5188544;28;20429;-71
2023/06/29 09:51:22;;;;;;;6.50;6.05;;;20.40;99.90;;;;;;5188439;28;20467;-71
2023/06/29 09:53:53;;;;;;;6.53;6.03;;;20.60;99.90;;;;;;5188355;28;20462;-72
2023/06/29 09:56:26;;;;;;;7.68;7.07;;;20.50;99.90;;;;;;5188253;28;20120;-71
2023/06/29 09:58:59;;;;;;;7.68;6.97;;;20.60;99.90;;;;;;5188236;28;20421;-70
2023/06/29 10:01:31;;;;;;;7.65;7.05;;;20.60;99.90;;;;;;5188137;28;20014;-70
2023/06/29 10:04:04;;;;;;;7.55;7.05;;;20.70;99.90;;;;;;5188113;28;20034;-71
2023/06/29 10:06:43;;;;;;;8.15;7.55;;;20.90;99.90;;;;;;5188083;28;20033;-72
2023/06/29 10:09:20;;;;;;;8.35;7.55;;;21.10;99.90;;;;;;5187885;28;20029;-71
2023/06/29 10:11:53;;;;;;;7.65;7.05;;;21.40;99.90;;;;;;5187986;28;20038;-71
2023/06/29 10:14:24;;;;;;;7.40;6.70;;;21.40;99.90;;;;;;5187861;28;20132;-71
2023/06/29 10:16:56;;;;;;;7.45;6.75;;;21.60;99.90;;;;;;5187757;28;20037;-71
2023/06/29 10:19:28;;;;;;;5.90;5.40;;;21.60;99.90;;;;;;5187586;28;20022;-71
2023/06/29 10:22:07;;;;;;;7.13;5.70;;;21.70;99.90;;;;;;5187930;28;20014;-70
2023/06/29 10:24:43;;;;;;;7.00;6.40;;;21.80;99.90;;;;;;5187866;28;20025;-72
2023/06/29 10:27:15;;;;;;;7.55;7.00;;;21.90;99.90;;;;;;5187912;28;20380;-71
2023/06/29 10:29:48;;;;;;;9.85;9.15;;;22.10;99.90;;;;;;5188066;28;20065;-71
2023/06/29 10:32:32;;;;;;;8.85;8.18;;;21.80;99.90;;;;;;5187742;28;20026;-71
2023/06/29 10:35:13;;;;;;;9.43;8.82;;;21.60;99.90;;;;;;5187845;28;20045;-71
2023/06/29 10:37:49;;;;;;;9.50;8.90;;;21.70;99.90;;;;;;5187717;28;20034;-71
2023/06/29 10:40:22;;;;;;;9.80;9.15;;;21.70;99.90;;;;;;5187325;28;20049;-71
2023/06/29 10:42:55;;;;;;;10.63;9.82;;;21.80;99.90;;;;;;5187567;28;20030;-71
2023/06/29 10:45:26;;;;;;;9.95;9.15;;;21.70;99.90;;;;;;5187428;28;20163;-71
2023/06/29 10:47:56;;;;;;;9.27;8.68;;;21.90;99.90;;;;;;5187385;28;20105;-71
2023/06/29 10:50:39;;;;;;;8.77;7.95;;;22.00;99.90;;;;;;5187451;28;20424;-71
2023/06/29 10:53:12;;;;;;;6.28;5.80;;;22.20;99.90;;;;;;5187341;28;20113;-70
2023/06/29 10:55:52;;;;;;;6.32;5.80;;;22.30;99.90;;;;;;5187171;28;20030;-70
2023/06/29 10:58:28;;;;;;;5.90;5.40;;;22.40;99.90;;;;;;5187259;28;20087;-71
2023/06/29 11:01:00;;;;;;;5.63;5.22;;;22.50;99.90;;;;;;5187192;28;20080;-72
2023/06/29 11:03:32;;;;;;;6.65;5.80;;;22.90;99.90;;;;;;5187067;28;20171;-71
2023/06/29 11:06:04;;;;;;;6.05;5.53;;;23.30;99.90;;;;;;5187128;28;20014;-71
2023/06/29 11:08:35;;;;;;;5.45;5.03;;;23.90;99.90;;;;;;5186693;28;20052;-70
2023/06/29 11:11:14;;;;;;;5.68;5.15;;;24.10;99.90;;;;;;5186915;28;20060;-70
2023/06/29 11:13:45;;;;;;;5.82;5.43;;;23.70;99.90;;;;;;5186925;28;20087;-71
2023/06/29 11:16:17;;;;;;;5.45;4.95;;;23.90;99.90;;;;;;5186666;28;20112;-70
2023/06/29 11:18:49;;;;;;;5.43;5.03;;;23.70;99.90;;;;;;5186787;28;20061;-71
2023/06/29 11:21:21;;;;;;;5.45;4.95;;;23.80;99.90;;;;;;5186644;28;20029;-71
2023/06/29 11:23:53;;;;;;;5.25;4.85;;;23.90;99.90;;;;;;5186686;28;20083;-70
2023/06/29 11:26:24;;;;;;;4.95;4.55;;;24.10;99.90;;;;;;5186659;28;20033;-70
2023/06/29 11:28:55;;;;;;;6.03;4.75;;;24.20;99.90;;;;;;5186595;28;20026;-71
2023/06/29 11:31:26;;;;;;;6.45;5.88;;;23.70;99.90;;;;;;5185722;28;20037;-71
2023/06/29 11:33:57;;;;;;;5.80;4.38;;;23.70;99.90;;;;;;5186315;28;20026;-70
2023/06/29 11:36:29;;;;;;;5.93;5.53;;;23.80;99.90;;;;;;5186288;28;20045;-70
2023/06/29 11:39:08;;;;;;;6.13;5.63;;;23.70;99.90;;;;;;5185869;28;20085;-71
2023/06/29 11:41:40;;;;;;;5.20;4.80;;;23.90;99.90;;;;;;5186239;28;20643;-72
2023/06/29 11:44:12;;;;;;;6.03;4.88;;;24.00;99.90;;;;;;5184917;28;20037;-71
2023/06/29 11:46:45;;;;;;;5.20;4.78;;;24.20;99.90;;;;;;5186344;28;20029;-71
2023/06/29 11:49:18;;;;;;;4.65;4.28;;;23.70;99.90;;;;;;5186348;28;20033;-71
2023/06/29 11:51:50;;;;;;;5.32;4.82;;;24.00;99.90;;;;;;5186498;28;20375;-72
2023/06/29 11:54:21;;;;;;;6.68;4.30;;;24.20;99.90;;;;;;5186512;28;20125;-71
2023/06/29 11:56:53;;;;;;;4.68;4.30;;;24.50;99.90;;;;;;5186331;28;20062;-71
2023/06/29 11:59:25;;;;;;;5.05;4.57;;;24.40;99.90;;;;;;5186128;28;20646;-71
2023/06/29 12:01:56;;;;;;;6.88;5.15;;;24.80;99.90;;;;;;5186230;28;20112;-71
2023/06/29 12:04:26;;;;;;;4.35;3.97;;;24.60;99.90;;;;;;5184737;28;20110;-70
2023/06/29 12:06:58;;;;;;;4.65;3.20;;;24.60;99.90;;;;;;5184648;28;20093;-70
2023/06/29 12:09:32;;;;;;;3.70;3.40;;;25.20;99.90;;;;;;5185676;28;20105;-70
2023/06/29 12:12:03;;;;;;;3.67;3.33;;;25.30;99.90;;;;;;5185908;28;20072;-70
2023/06/29 12:14:34;;;;;;;5.03;4.28;;;25.00;99.90;;;;;;5185895;28;20022;-71
2023/06/29 12:17:18;;;;;;;4.70;4.30;;;25.00;99.90;;;;;;5185791;28;20113;-71
2023/06/29 12:19:52;;;;;;;5.72;5.32;;;24.90;99.90;;;;;;5185804;28;20029;-71
2023/06/29 12:22:23;;;;;;;5.15;4.75;;;24.80;99.90;;;;;;5185669;28;20129;-70
2023/06/29 12:24:54;;;;;;;4.57;4.28;;;24.80;99.90;;;;;;5185635;28;20022;-70
2023/06/29 12:27:25;;;;;;;4.72;4.40;;;24.70;99.90;;;;;;5185620;28;20359;-71
2023/06/29 12:29:56;;;;;;;4.70;4.30;;;24.70;99.90;;;;;;5185413;28;20029;-71
2023/06/29 12:32:27;;;;;;;4.20;3.90;;;24.80;99.90;;;;;;5184390;28;20036;-70
2023/06/29 12:34:58;;;;;;;6.90;3.85;;;24.60;99.90;;;;;;5185430;28;20018;-71
2023/06/29 12:37:29;;;;;;;4.05;3.75;;;24.90;99.90;;;;;;5185384;28;20037;-71
2023/06/29 12:40:00;;;;;;;6.28;3.67;;;25.00;99.90;;;;;;5185103;28;20138;-70
2023/06/29 12:42:32;;;;;;;4.00;3.60;;;24.80;99.90;;;;;;5185267;28;20038;-70
2023/06/29 12:45:04;;;;;;;4.82;4.20;;;25.10;99.90;;;;;;5185413;28;20116;-72
2023/06/29 12:47:35;;;;;;;5.20;4.70;;;25.40;99.90;;;;;;5185264;28;20026;-70
2023/06/29 12:50:08;;;;;;;3.65;3.35;;;25.30;99.90;;;;;;5185356;28;20034;-71
2023/06/29 12:52:39;;;;;;;3.72;3.42;;;25.40;99.90;;;;;;5185321;28;20072;-70
2023/06/29 12:55:10;;;;;;;3.45;3.22;;;25.50;99.90;;;;;;5185154;28;20039;-71
2023/06/29 12:57:43;;;;;;;4.13;3.70;;;25.60;99.90;;;;;;5185236;28;20039;-72
2023/06/29 13:00:18;;;;;;;3.75;3.38;;;25.70;99.90;;;;;;5185308;28;20033;-71
2023/06/29 13:02:52;;;;;;;3.20;3.00;;;25.40;99.90;;;;;;5185191;28;20474;-70
2023/06/29 13:05:23;;;;;;;3.92;3.53;;;25.80;99.90;;;;;;5185121;28;20436;-71